Time;durP1;ratioP1;P1;durP2;ratioP2;P2;SDS_P1;SDS_P2;PMS_P1;PMS_P2;Temp;Humidity;BMP_temperature;BMP_pressure;BME280_temperature;BME280_humidity;BME280_pressure;Samples;Min_cycle;Max_cycle;Signal;HPM_P1;HPM_P2
2022/12/03 00:02:29;;;;;;;3.03;1.10;;;22.70;99.90;;;;;;5064539;28;20246;-81
2022/12/03 00:05:02;;;;;;;4.47;1.30;;;22.70;99.90;;;;;;5061008;28;20216;-80
2022/12/03 00:07:33;;;;;;;3.85;1.40;;;22.60;99.90;;;;;;5059766;28;20193;-81
2022/12/03 00:10:05;;;;;;;4.03;1.20;;;22.50;99.90;;;;;;5057720;28;20203;-81
2022/12/03 00:12:36;;;;;;;4.25;1.10;;;22.50;99.90;;;;;;5055118;28;20228;-81
2022/12/03 00:15:09;;;;;;;4.63;1.25;;;22.40;99.90;;;;;;5053178;28;20250;-82
2022/12/03 00:17:40;;;;;;;4.18;1.13;;;22.40;99.90;;;;;;5053493;28;20285;-81
2022/12/03 00:20:18;;;;;;;3.13;1.00;;;22.30;99.90;;;;;;5062743;28;20199;-81
2022/12/03 00:22:49;;;;;;;4.35;1.02;;;22.30;99.90;;;;;;5074080;28;20206;-82
2022/12/03 00:25:20;;;;;;;3.70;1.17;;;22.30;99.90;;;;;;5073654;28;20200;-81
2022/12/03 00:27:53;;;;;;;5.10;1.27;;;22.40;99.90;;;;;;5073701;28;20199;-82
2022/12/03 00:30:24;;;;;;;3.15;1.15;;;22.40;99.90;;;;;;5073267;28;20215;-82
2022/12/03 00:32:55;;;;;;;5.72;1.33;;;22.40;99.90;;;;;;5083693;28;20203;-82
2022/12/03 00:35:27;;;;;;;3.88;1.40;;;22.40;99.90;;;;;;5055141;28;20230;-82
2022/12/03 00:37:58;;;;;;;4.50;1.25;;;22.40;99.90;;;;;;5072696;28;20278;-82
2022/12/03 00:40:29;;;;;;;4.50;1.38;;;22.40;99.90;;;;;;5073164;28;20669;-82
2022/12/03 00:43:00;;;;;;;4.90;1.20;;;22.50;99.90;;;;;;5072955;28;20196;-82
2022/12/03 00:45:31;;;;;;;5.85;1.30;;;22.60;99.90;;;;;;5073039;28;20198;-82
2022/12/03 00:48:02;;;;;;;5.53;1.33;;;22.70;99.90;;;;;;5073006;28;20199;-83
2022/12/03 00:50:35;;;;;;;6.25;1.58;;;22.80;99.90;;;;;;5053509;28;20205;-82
2022/12/03 00:53:05;;;;;;;6.93;1.05;;;23.10;99.90;;;;;;5053609;28;20200;-82
2022/12/03 00:55:36;;;;;;;5.75;1.27;;;23.50;99.90;;;;;;5072703;28;20296;-83
2022/12/03 00:58:07;;;;;;;4.03;1.23;;;23.80;99.90;;;;;;5073054;28;20202;-83
2022/12/03 01:00:38;;;;;;;8.65;1.48;;;24.00;99.90;;;;;;5072556;28;20204;-82
2022/12/03 01:03:08;;;;;;;5.88;1.60;;;24.20;99.90;;;;;;5072310;28;20192;-83
2022/12/03 01:05:41;;;;;;;6.10;1.48;;;24.60;99.90;;;;;;5072662;28;20219;-84
2022/12/03 01:08:12;;;;;;;7.88;1.30;;;24.70;99.90;;;;;;5062359;28;20326;-82
2022/12/03 01:10:44;;;;;;;6.15;1.30;;;24.70;99.90;;;;;;5057466;28;20227;-83
2022/12/03 01:13:14;;;;;;;4.63;1.60;;;24.80;99.90;;;;;;5076059;28;20246;-83
2022/12/03 01:15:45;;;;;;;6.10;1.50;;;25.00;99.90;;;;;;5075579;28;20593;-83
2022/12/03 01:18:16;;;;;;;5.25;1.30;;;25.00;99.90;;;;;;5073155;28;20239;-83
2022/12/03 01:20:49;;;;;;;4.03;1.33;;;25.20;99.90;;;;;;5060139;28;20196;-83
2022/12/03 01:23:20;;;;;;;4.55;1.40;;;25.00;99.90;;;;;;5073219;28;20203;-83
2022/12/03 01:25:51;;;;;;;5.38;1.25;;;25.10;99.90;;;;;;5058231;28;20261;-83
2022/12/03 01:28:22;;;;;;;5.30;1.40;;;25.30;99.90;;;;;;5056903;28;20266;-83
2022/12/03 01:33:40;;;;;;;3.72;1.58;;;25.70;99.90;;;;;;5075680;28;20218;-84
2022/12/03 01:36:14;;;;;;;4.90;1.40;;;25.70;99.90;;;;;;5074404;28;20219;-84
2022/12/03 01:38:48;;;;;;;3.40;1.45;;;25.70;99.90;;;;;;5076646;28;20196;-84
2022/12/03 01:41:20;;;;;;;4.55;1.15;;;25.50;99.90;;;;;;5071031;28;20200;-83
2022/12/03 01:43:51;;;;;;;2.70;0.93;;;25.20;99.90;;;;;;5062505;28;20188;-83
2022/12/03 01:46:25;;;;;;;3.38;1.13;;;25.20;99.90;;;;;;5072997;28;20192;-82
2022/12/03 01:48:57;;;;;;;3.17;1.05;;;25.30;99.90;;;;;;5072358;28;20196;-83
2022/12/03 01:51:30;;;;;;;3.47;1.02;;;25.30;99.90;;;;;;5072300;28;20203;-83
2022/12/03 01:54:02;;;;;;;4.45;1.10;;;25.40;99.90;;;;;;5072763;28;20200;-83
2022/12/03 01:56:33;;;;;;;5.53;1.13;;;25.20;99.90;;;;;;5071801;28;20238;-84
2022/12/03 01:59:04;;;;;;;3.53;1.10;;;25.10;99.90;;;;;;5070734;28;22262;-83
2022/12/03 02:01:35;;;;;;;4.47;1.20;;;25.00;99.90;;;;;;5073119;28;20309;-84
2022/12/03 02:04:06;;;;;;;4.60;0.90;;;25.00;99.90;;;;;;5071319;28;20203;-83
2022/12/03 02:06:38;;;;;;;3.90;1.20;;;25.10;99.90;;;;;;5071831;28;20279;-83
2022/12/03 02:09:11;;;;;;;4.25;1.15;;;25.30;99.90;;;;;;5073301;28;20196;-82
2022/12/03 02:11:45;;;;;;;5.47;1.10;;;25.50;99.90;;;;;;5073054;28;20767;-82
2022/12/03 02:14:19;;;;;;;5.47;1.02;;;25.60;99.90;;;;;;5072393;28;20203;-83
2022/12/03 02:16:51;;;;;;;2.80;0.88;;;25.60;99.90;;;;;;5055465;28;20504;-83
2022/12/03 02:19:28;;;;;;;3.88;1.10;;;25.50;99.90;;;;;;5053435;28;20211;-82
2022/12/03 02:22:07;;;;;;;3.97;1.05;;;25.40;99.90;;;;;;5056012;28;20199;-83
2022/12/03 02:24:44;;;;;;;3.08;0.90;;;25.50;99.90;;;;;;5051611;28;20280;-81
2022/12/03 02:27:17;;;;;;;4.75;1.10;;;25.60;99.90;;;;;;5051409;28;20647;-83
2022/12/03 02:29:48;;;;;;;4.65;0.90;;;25.80;99.90;;;;;;5051279;28;20275;-81
2022/12/03 02:32:20;;;;;;;3.00;0.90;;;25.90;99.90;;;;;;5067158;28;20671;-83
2022/12/03 02:34:51;;;;;;;2.47;0.93;;;26.00;99.90;;;;;;5051593;28;20199;-82
2022/12/03 02:37:24;;;;;;;4.78;1.20;;;26.20;99.90;;;;;;5052160;28;20203;-83
2022/12/03 02:39:57;;;;;;;5.22;1.08;;;26.40;99.90;;;;;;5051405;28;20285;-83
2022/12/03 02:42:37;;;;;;;3.92;1.00;;;26.30;99.90;;;;;;5050987;28;20286;-84
2022/12/03 02:45:11;;;;;;;2.65;0.98;;;26.30;99.90;;;;;;5050802;28;20196;-83
2022/12/03 02:47:45;;;;;;;3.17;1.00;;;26.60;99.90;;;;;;5051022;28;20279;-84
2022/12/03 02:50:19;;;;;;;3.17;1.15;;;26.40;99.90;;;;;;5051515;28;20521;-83
2022/12/03 02:52:51;;;;;;;5.18;1.00;;;26.30;99.90;;;;;;5051274;28;20613;-82
2022/12/03 02:55:22;;;;;;;4.57;1.00;;;26.10;99.90;;;;;;5051227;28;20240;-82
2022/12/03 02:57:56;;;;;;;3.05;1.10;;;25.90;99.90;;;;;;5051461;28;20204;-83
2022/12/03 03:00:27;;;;;;;5.45;1.50;;;25.90;99.90;;;;;;5054827;28;20318;-83
2022/12/03 03:02:58;;;;;;;5.10;1.23;;;25.80;99.90;;;;;;5071121;28;20210;-83
2022/12/03 03:05:29;;;;;;;5.50;1.40;;;25.90;99.90;;;;;;5069586;28;20801;-83
2022/12/03 03:08:01;;;;;;;4.28;1.30;;;25.70;99.90;;;;;;5082159;28;20199;-83
2022/12/03 03:10:34;;;;;;;5.20;1.30;;;25.80;99.90;;;;;;5091870;28;20179;-82
2022/12/03 03:13:11;;;;;;;3.65;1.23;;;25.80;99.90;;;;;;5090738;28;20222;-82
2022/12/03 03:15:43;;;;;;;4.00;1.20;;;25.90;99.90;;;;;;5091297;28;20223;-83
2022/12/03 03:18:16;;;;;;;3.10;1.30;;;25.90;99.90;;;;;;5050859;28;20210;-83
2022/12/03 03:20:47;;;;;;;3.65;1.40;;;26.00;99.90;;;;;;5066621;28;20234;-82
2022/12/03 03:23:20;;;;;;;3.00;0.88;;;26.20;99.90;;;;;;5067912;28;20567;-83
2022/12/03 03:25:55;;;;;;;2.83;0.98;;;26.10;99.90;;;;;;5061945;28;20200;-82
2022/12/03 03:28:29;;;;;;;4.53;0.95;;;26.20;99.90;;;;;;5050771;28;20203;-83
2022/12/03 03:31:02;;;;;;;4.07;1.10;;;26.30;99.90;;;;;;5050711;28;20570;-83
2022/12/03 03:33:34;;;;;;;4.43;1.35;;;26.20;99.90;;;;;;5066560;28;20495;-82
2022/12/03 03:36:05;;;;;;;6.13;1.10;;;26.30;99.90;;;;;;5069244;28;20634;-82
2022/12/03 03:38:37;;;;;;;2.05;1.00;;;26.60;99.90;;;;;;5071017;28;20210;-84
2022/12/03 03:41:10;;;;;;;5.38;1.10;;;27.00;99.90;;;;;;5064726;28;20262;-83
2022/12/03 03:43:44;;;;;;;2.55;1.08;;;27.00;99.90;;;;;;5054747;28;20287;-83
2022/12/03 03:46:16;;;;;;;5.47;1.15;;;27.00;99.90;;;;;;5059049;28;20203;-82
2022/12/03 03:48:48;;;;;;;3.20;1.08;;;26.90;99.90;;;;;;5074317;28;20208;-82
2022/12/03 03:51:20;;;;;;;3.97;1.30;;;26.90;99.90;;;;;;5074290;28;20199;-82
2022/12/03 03:53:53;;;;;;;2.78;1.10;;;26.80;99.90;;;;;;5073629;28;20200;-82
2022/12/03 03:56:24;;;;;;;4.07;0.80;;;26.60;99.90;;;;;;5074443;28;20654;-82
2022/12/03 03:58:58;;;;;;;5.53;1.30;;;26.60;99.90;;;;;;5058196;28;20283;-82
2022/12/03 04:01:30;;;;;;;4.82;1.33;;;26.50;99.90;;;;;;5054801;28;20219;-82
2022/12/03 04:04:01;;;;;;;3.03;0.98;;;26.70;99.90;;;;;;5077161;28;20286;-82
2022/12/03 04:06:33;;;;;;;4.30;1.20;;;26.60;99.90;;;;;;5078212;28;20223;-83
2022/12/03 04:09:03;;;;;;;3.60;1.20;;;26.70;99.90;;;;;;5066477;28;20192;-83
2022/12/03 04:14:23;;;;;;;5.50;1.20;;;26.60;99.90;;;;;;5071399;28;20216;-83
2022/12/03 04:16:54;;;;;;;2.92;1.15;;;26.80;99.90;;;;;;5054234;28;20224;-83
2022/12/03 04:19:24;;;;;;;2.72;0.82;;;26.90;99.90;;;;;;5054010;28;20223;-83
2022/12/03 04:24:42;;;;;;;3.90;1.00;;;26.70;99.90;;;;;;5073040;28;20290;-82
2022/12/03 04:30:01;;;;;;;3.75;0.90;;;27.00;99.90;;;;;;5054370;28;20675;-82
2022/12/03 04:38:05;;;;;;;2.60;1.02;;;27.40;99.90;;;;;;5067191;28;20207;-82
2022/12/03 04:43:23;;;;;;;1.88;0.80;;;27.40;99.90;;;;;;5076351;28;20202;-82
2022/12/03 04:45:55;;;;;;;4.68;1.10;;;27.40;99.90;;;;;;5075068;28;20210;-83
2022/12/03 04:48:26;;;;;;;1.67;0.68;;;27.40;99.90;;;;;;5074079;28;20192;-83
2022/12/03 04:50:57;;;;;;;2.88;0.80;;;27.50;99.90;;;;;;5075269;28;20283;-82
2022/12/03 04:53:29;;;;;;;2.58;0.82;;;27.70;99.90;;;;;;5077100;28;20204;-82
2022/12/03 04:55:59;;;;;;;1.92;0.80;;;28.00;99.90;;;;;;5060203;28;20322;-81
2022/12/03 04:58:30;;;;;;;1.98;0.60;;;27.90;99.90;;;;;;5077110;28;20196;-82
2022/12/03 05:01:03;;;;;;;4.25;0.90;;;27.90;99.90;;;;;;5075974;28;20206;-81
2022/12/03 05:03:33;;;;;;;3.95;0.90;;;27.60;99.90;;;;;;5074363;28;20196;-82
2022/12/03 05:06:04;;;;;;;2.75;1.10;;;27.70;99.90;;;;;;5066322;28;20224;-81
2022/12/03 05:08:35;;;;;;;2.53;0.70;;;27.90;99.90;;;;;;5055858;28;20215;-81
2022/12/03 05:11:06;;;;;;;3.63;0.80;;;28.00;99.90;;;;;;5056314;28;20279;-81
2022/12/03 05:13:37;;;;;;;2.08;0.70;;;27.90;99.90;;;;;;5055654;28;20200;-82
2022/12/03 05:16:10;;;;;;;2.03;0.70;;;28.10;99.90;;;;;;5057369;28;20252;-81
2022/12/03 05:18:41;;;;;;;2.70;0.75;;;27.90;99.90;;;;;;5055988;28;20231;-80
2022/12/03 05:21:12;;;;;;;4.13;0.60;;;28.20;99.90;;;;;;5074645;28;20746;-81
2022/12/03 05:23:43;;;;;;;1.42;0.60;;;28.40;99.90;;;;;;5071358;28;20195;-80
2022/12/03 05:26:14;;;;;;;2.20;0.68;;;28.50;99.90;;;;;;5072632;28;20207;-81
2022/12/03 05:28:45;;;;;;;1.95;0.77;;;28.80;99.90;;;;;;5064478;28;20196;-80
2022/12/03 05:31:18;;;;;;;1.88;0.70;;;28.90;99.90;;;;;;5052786;28;20250;-81
2022/12/03 05:33:49;;;;;;;2.63;0.80;;;28.70;99.90;;;;;;5069764;28;20572;-81
2022/12/03 05:36:20;;;;;;;1.65;0.70;;;28.40;99.90;;;;;;5095794;28;20606;-81
2022/12/03 05:38:51;;;;;;;3.08;0.77;;;28.60;99.90;;;;;;5092794;28;20274;-82
2022/12/03 05:44:08;;;;;;;2.65;0.60;;;28.90;99.90;;;;;;5061774;28;20223;-81
2022/12/03 05:46:41;;;;;;;4.70;0.95;;;29.50;99.90;;;;;;5052038;28;20283;-82
2022/12/03 05:49:11;;;;;;;1.98;0.70;;;29.90;99.90;;;;;;5062643;28;20218;-81
2022/12/03 05:51:42;;;;;;;2.80;0.70;;;29.60;98.40;;;;;;5071989;28;20205;-82
2022/12/03 05:54:14;;;;;;;2.88;0.73;;;29.50;99.00;;;;;;5072516;28;20290;-82
2022/12/03 05:56:44;;;;;;;3.05;0.70;;;29.70;97.80;;;;;;5049128;28;20255;-80
2022/12/03 05:59:18;;;;;;;1.52;0.80;;;29.40;97.80;;;;;;5033141;28;20233;-80
2022/12/03 06:01:53;;;;;;;1.77;0.77;;;28.90;99.10;;;;;;5034028;28;20228;-80
2022/12/03 06:04:24;;;;;;;2.13;0.65;;;28.90;99.80;;;;;;5044252;28;20776;-81
2022/12/03 06:06:56;;;;;;;1.48;0.70;;;28.90;99.60;;;;;;5056704;28;20228;-80
2022/12/03 06:09:27;;;;;;;2.70;0.85;;;28.80;99.50;;;;;;5053815;28;20193;-81
2022/12/03 06:11:58;;;;;;;2.38;0.80;;;28.50;99.70;;;;;;5051719;28;20235;-81
2022/12/03 06:14:30;;;;;;;3.17;0.85;;;28.60;99.70;;;;;;5050055;28;20200;-81
2022/12/03 06:17:03;;;;;;;2.45;0.73;;;28.60;99.90;;;;;;5051405;28;20634;-81
2022/12/03 06:19:34;;;;;;;4.53;1.20;;;28.60;99.70;;;;;;5051627;28;20284;-82
2022/12/03 06:22:06;;;;;;;2.88;1.08;;;28.40;99.90;;;;;;5045800;28;20283;-82
2022/12/03 06:24:37;;;;;;;5.60;2.13;;;28.70;99.40;;;;;;5035809;28;20212;-82
2022/12/03 06:27:08;;;;;;;8.75;4.10;;;29.00;98.80;;;;;;5043572;28;20211;-82
2022/12/03 06:29:40;;;;;;;2.70;1.00;;;29.00;99.10;;;;;;5051201;28;20200;-83
2022/12/03 06:32:13;;;;;;;4.00;0.93;;;29.50;97.50;;;;;;5050989;28;20620;-82
2022/12/03 06:34:43;;;;;;;3.17;1.25;;;29.20;97.30;;;;;;5056127;28;20181;-81
2022/12/03 06:37:14;;;;;;;3.38;1.05;;;29.40;96.80;;;;;;5059217;28;20224;-82
2022/12/03 06:39:45;;;;;;;5.38;0.90;;;29.80;96.80;;;;;;5042910;28;20195;-81
2022/12/03 06:42:16;;;;;;;2.80;1.02;;;29.60;96.40;;;;;;5055570;28;20204;-81
2022/12/03 06:44:47;;;;;;;3.05;0.90;;;29.70;96.20;;;;;;5036175;28;20288;-82
2022/12/03 06:47:19;;;;;;;2.72;0.85;;;30.00;95.20;;;;;;5034355;28;20201;-83
2022/12/03 06:49:50;;;;;;;2.05;0.98;;;30.50;95.00;;;;;;5050158;28;20640;-81
2022/12/03 06:52:21;;;;;;;2.47;0.68;;;30.50;94.30;;;;;;5050846;28;20204;-81
2022/12/03 06:54:52;;;;;;;2.90;0.80;;;30.80;93.40;;;;;;5039722;28;20244;-81
2022/12/03 06:57:23;;;;;;;2.92;0.77;;;31.00;92.40;;;;;;5047544;28;20662;-81
2022/12/03 06:59:54;;;;;;;1.65;0.50;;;31.00;91.00;;;;;;5051026;28;20622;-81
2022/12/03 07:02:27;;;;;;;1.55;0.60;;;31.00;90.70;;;;;;5051518;28;20200;-82
2022/12/03 07:04:58;;;;;;;2.67;0.63;;;31.10;90.90;;;;;;5051668;28;20248;-82
2022/12/03 07:07:29;;;;;;;2.10;0.68;;;31.10;90.00;;;;;;5050695;28;20203;-82
2022/12/03 07:10:00;;;;;;;1.10;0.50;;;30.90;90.70;;;;;;5051584;28;20207;-81
2022/12/03 07:12:31;;;;;;;2.38;0.73;;;30.70;90.20;;;;;;5051041;28;20200;-82
2022/12/03 07:15:02;;;;;;;3.85;0.65;;;30.60;91.00;;;;;;5050798;28;20291;-82
2022/12/03 07:17:35;;;;;;;2.25;0.68;;;30.40;90.40;;;;;;5050216;28;20307;-83
2022/12/03 07:20:08;;;;;;;1.20;0.50;;;30.40;90.10;;;;;;5059652;28;20338;-81
2022/12/03 07:22:39;;;;;;;2.05;0.55;;;30.50;90.30;;;;;;5075262;28;20200;-81
2022/12/03 07:25:11;;;;;;;1.90;0.50;;;30.30;89.20;;;;;;5056541;28;20723;-82
2022/12/03 07:27:41;;;;;;;2.05;0.70;;;30.40;89.00;;;;;;5052593;28;20235;-83
2022/12/03 07:30:18;;;;;;;4.72;1.00;;;30.30;89.40;;;;;;5051118;28;20200;-82
2022/12/03 07:32:51;;;;;;;6.30;0.70;;;29.90;90.30;;;;;;5051257;28;20296;-81
2022/12/03 07:35:22;;;;;;;2.92;0.93;;;30.00;89.40;;;;;;5067846;28;20681;-82
2022/12/03 07:37:56;;;;;;;3.85;0.80;;;29.80;89.90;;;;;;5060359;28;20212;-82
2022/12/03 07:40:26;;;;;;;2.58;0.70;;;29.40;90.90;;;;;;5055460;28;20203;-81
2022/12/03 07:42:57;;;;;;;6.00;0.80;;;29.20;91.40;;;;;;5059442;28;20196;-82
2022/12/03 07:45:28;;;;;;;2.83;0.60;;;28.90;92.10;;;;;;5072811;28;20208;-82
2022/12/03 07:48:01;;;;;;;1.77;0.70;;;28.80;92.50;;;;;;5077867;28;20192;-82
2022/12/03 07:50:31;;;;;;;3.72;0.85;;;28.50;93.30;;;;;;5069436;28;20198;-82
2022/12/03 07:53:03;;;;;;;1.65;0.73;;;28.30;93.60;;;;;;5066159;28;20533;-81
2022/12/03 07:55:33;;;;;;;2.72;0.75;;;27.90;93.70;;;;;;5050053;28;20205;-81
2022/12/03 07:58:04;;;;;;;4.10;0.85;;;27.40;94.50;;;;;;5063084;28;20227;-82
2022/12/03 08:00:35;;;;;;;1.55;0.60;;;27.10;95.10;;;;;;5069879;28;20207;-82
2022/12/03 08:03:08;;;;;;;2.10;0.60;;;26.70;95.80;;;;;;5070105;28;20222;-81
2022/12/03 08:05:39;;;;;;;2.58;1.10;;;26.30;97.40;;;;;;5069829;28;20212;-82
2022/12/03 08:08:10;;;;;;;3.50;0.93;;;25.90;99.40;;;;;;5069482;28;20265;-81
2022/12/03 08:10:41;;;;;;;3.25;0.70;;;25.60;99.90;;;;;;5069380;28;20668;-82
2022/12/03 08:13:16;;;;;;;2.78;0.80;;;25.40;99.90;;;;;;5059280;28;20233;-82
2022/12/03 08:15:50;;;;;;;1.90;0.70;;;25.10;99.90;;;;;;5069052;28;20203;-82
2022/12/03 08:18:24;;;;;;;1.65;0.70;;;24.90;99.90;;;;;;5069493;28;20615;-83
2022/12/03 08:20:55;;;;;;;1.90;0.95;;;24.80;99.90;;;;;;5070082;28;20200;-83
2022/12/03 08:23:27;;;;;;;2.25;0.95;;;24.60;99.90;;;;;;5070125;28;20196;-83
2022/12/03 08:26:00;;;;;;;3.25;0.98;;;24.50;99.90;;;;;;5070700;28;20202;-83
2022/12/03 08:28:32;;;;;;;2.30;0.93;;;24.30;99.90;;;;;;5072660;28;20210;-81
2022/12/03 08:31:10;;;;;;;3.05;0.90;;;24.10;99.90;;;;;;5056776;28;20690;-81
2022/12/03 08:33:43;;;;;;;3.95;0.90;;;24.10;99.90;;;;;;5061981;28;20701;-82
2022/12/03 08:36:18;;;;;;;3.13;0.90;;;23.90;99.90;;;;;;5062829;28;20202;-81
2022/12/03 08:38:53;;;;;;;4.78;1.08;;;23.90;99.90;;;;;;5072903;28;20624;-81
2022/12/03 08:44:26;;;;;;;5.15;0.95;;;23.60;99.90;;;;;;5008835;28;20587;-82
2022/12/03 08:47:02;;;;;;;2.83;1.00;;;23.50;99.90;;;;;;5071670;28;20200;-82
2022/12/03 08:49:34;;;;;;;3.63;1.10;;;23.40;99.90;;;;;;5086683;28;20188;-82
2022/12/03 08:52:16;;;;;;;1.75;0.93;;;23.40;99.90;;;;;;5075671;28;20657;-82
2022/12/03 08:54:53;;;;;;;4.35;0.95;;;23.30;99.90;;;;;;5080096;28;20203;-83
2022/12/03 08:57:30;;;;;;;3.53;1.20;;;23.30;99.90;;;;;;5083977;28;20231;-83
2022/12/03 09:00:08;;;;;;;6.50;1.27;;;23.10;99.90;;;;;;5081992;28;20230;-83
2022/12/03 09:02:39;;;;;;;4.13;1.10;;;23.10;99.90;;;;;;5087405;28;20187;-84
2022/12/03 09:05:21;;;;;;;3.83;1.25;;;23.00;99.90;;;;;;5065854;28;20255;-83
2022/12/03 09:07:52;;;;;;;5.32;0.88;;;22.80;99.90;;;;;;5058006;28;20206;-83
2022/12/03 09:10:26;;;;;;;2.90;1.05;;;22.80;99.90;;;;;;5058222;28;20235;-83
2022/12/03 09:12:57;;;;;;;3.17;1.10;;;22.80;99.90;;;;;;5070497;28;20216;-83
2022/12/03 09:15:28;;;;;;;4.68;1.00;;;22.60;99.90;;;;;;5076222;28;20749;-83
2022/12/03 09:17:58;;;;;;;2.95;1.10;;;22.50;99.90;;;;;;5075873;28;20344;-83
2022/12/03 09:20:31;;;;;;;4.03;1.08;;;22.50;99.90;;;;;;5082024;28;20200;-83
2022/12/03 09:23:13;;;;;;;4.53;1.10;;;22.50;99.90;;;;;;5085386;28;20228;-83
2022/12/03 09:25:47;;;;;;;2.35;0.80;;;22.50;99.90;;;;;;5078053;28;20208;-81
2022/12/03 09:28:20;;;;;;;3.92;0.80;;;22.60;99.90;;;;;;5077216;28;20202;-82
2022/12/03 09:30:51;;;;;;;4.20;1.05;;;22.50;99.90;;;;;;5071022;28;20570;-82
2022/12/03 09:33:21;;;;;;;4.28;0.90;;;22.60;99.90;;;;;;5056452;28;20566;-82
2022/12/03 09:35:54;;;;;;;3.67;1.15;;;22.40;99.90;;;;;;5054314;28;20241;-82
2022/12/03 09:38:25;;;;;;;3.35;0.90;;;22.40;99.90;;;;;;5075233;28;20224;-82
2022/12/03 09:40:57;;;;;;;2.25;0.98;;;22.40;99.90;;;;;;5077454;28;20255;-82
2022/12/03 09:43:34;;;;;;;3.97;1.38;;;22.30;99.90;;;;;;5081662;28;20198;-82
2022/12/03 09:46:05;;;;;;;3.63;1.02;;;22.30;99.90;;;;;;5093843;28;20188;-82
2022/12/03 09:48:36;;;;;;;3.13;1.10;;;22.20;99.90;;;;;;5096812;28;20201;-82
2022/12/03 09:51:23;;;;;;;4.18;1.20;;;22.20;99.90;;;;;;5098675;28;20206;-82
2022/12/03 09:53:56;;;;;;;2.08;1.00;;;22.30;99.90;;;;;;5104941;28;20547;-83
2022/12/03 09:56:27;;;;;;;2.90;1.10;;;22.20;99.90;;;;;;5074813;28;20239;-82
2022/12/03 09:58:58;;;;;;;4.90;1.30;;;22.20;99.90;;;;;;5079530;28;20223;-82
2022/12/03 10:01:29;;;;;;;3.38;1.13;;;22.20;99.90;;;;;;5079914;28;20210;-82
2022/12/03 10:04:02;;;;;;;2.90;1.05;;;22.20;99.90;;;;;;5077665;28;20188;-82
2022/12/03 10:06:35;;;;;;;3.85;1.20;;;22.10;99.90;;;;;;5078994;28;20184;-82
2022/12/03 10:09:15;;;;;;;3.10;1.08;;;21.90;99.90;;;;;;5078047;28;20261;-82
2022/12/03 10:11:46;;;;;;;5.03;1.10;;;21.90;99.90;;;;;;5067892;28;20684;-81
2022/12/03 10:14:21;;;;;;;4.07;0.98;;;21.90;99.90;;;;;;5057358;28;20201;-83
2022/12/03 10:16:53;;;;;;;3.72;0.90;;;22.00;99.90;;;;;;5060475;28;20195;-82
2022/12/03 10:19:28;;;;;;;1.80;1.02;;;22.00;99.90;;;;;;5070686;28;20251;-82
2022/12/03 10:22:02;;;;;;;6.38;1.20;;;21.80;99.90;;;;;;5076642;28;20199;-82
2022/12/03 10:24:34;;;;;;;5.07;1.08;;;21.90;99.90;;;;;;5078152;28;20271;-83
2022/12/03 10:27:07;;;;;;;4.57;1.00;;;21.90;99.90;;;;;;5078921;28;20299;-83
2022/12/03 10:29:39;;;;;;;4.15;1.10;;;22.00;99.90;;;;;;5078063;28;20267;-83
2022/12/03 10:32:11;;;;;;;4.90;1.13;;;22.00;99.90;;;;;;5075896;28;20299;-82
2022/12/03 10:34:45;;;;;;;5.60;1.13;;;22.00;99.90;;;;;;5079333;28;20203;-81
2022/12/03 10:37:23;;;;;;;4.68;1.02;;;21.80;99.90;;;;;;5075233;28;20199;-82
2022/12/03 10:40:04;;;;;;;1.73;0.90;;;21.70;99.90;;;;;;5078085;28;20206;-82
2022/12/03 10:42:37;;;;;;;5.88;1.02;;;21.80;99.90;;;;;;5056183;28;20690;-82
2022/12/03 10:45:16;;;;;;;5.53;1.08;;;21.80;99.90;;;;;;5057094;28;20196;-82
2022/12/03 10:48:06;;;;;;;8.80;1.23;;;21.90;99.90;;;;;;5078078;28;20207;-81
2022/12/03 10:50:38;;;;;;;1.67;0.85;;;21.80;99.90;;;;;;5076647;28;20235;-83
2022/12/03 10:53:13;;;;;;;2.25;1.10;;;21.80;99.90;;;;;;5073878;28;20235;-83
2022/12/03 10:55:45;;;;;;;4.50;1.00;;;21.80;99.90;;;;;;5056382;28;20199;-82
2022/12/03 10:58:24;;;;;;;5.53;1.23;;;21.80;99.90;;;;;;5057566;28;20223;-83
2022/12/03 11:00:57;;;;;;;3.80;1.00;;;21.80;99.90;;;;;;5055156;28;20211;-83
2022/12/03 11:03:29;;;;;;;3.67;0.98;;;21.80;99.90;;;;;;5062858;28;20283;-83
2022/12/03 11:06:03;;;;;;;4.95;1.10;;;21.70;99.90;;;;;;5053826;28;20614;-82
2022/12/03 11:08:38;;;;;;;4.15;0.98;;;21.70;99.90;;;;;;5065741;28;20204;-83
2022/12/03 11:11:17;;;;;;;2.60;0.80;;;21.70;99.90;;;;;;5073511;28;20203;-82
2022/12/03 11:13:56;;;;;;;2.08;0.80;;;21.70;99.90;;;;;;5072971;28;20200;-82
2022/12/03 11:17:08;;;;;;;3.50;1.23;;;21.70;99.90;;;;;;5055338;28;20198;-82
2022/12/03 11:19:47;;;;;;;4.72;0.90;;;21.60;99.90;;;;;;5054443;28;20232;-82
2022/12/03 11:22:29;;;;;;;2.78;0.90;;;21.70;99.90;;;;;;5072266;28;20211;-82
2022/12/03 11:25:49;;;;;;;3.15;0.80;;;21.70;99.90;;;;;;5063649;28;20241;-81
2022/12/03 11:28:58;;;;;;;3.58;0.98;;;21.60;99.90;;;;;;4976788;28;20195;-82
2022/12/03 11:31:42;;;;;;;4.68;1.13;;;21.70;99.90;;;;;;4990115;28;20200;-82
2022/12/03 11:34:50;;;;;;;3.60;0.90;;;21.60;99.90;;;;;;5069443;28;20227;-82
2022/12/03 11:37:31;;;;;;;4.85;1.00;;;21.60;99.90;;;;;;5077085;28;20364;-81
2022/12/03 11:40:27;;;;;;;3.67;0.98;;;21.50;99.90;;;;;;5078408;28;20223;-81
2022/12/03 11:42:58;;;;;;;3.58;0.77;;;21.50;99.90;;;;;;5066929;28;20200;-81
2022/12/03 11:45:38;;;;;;;4.45;0.95;;;21.60;99.90;;;;;;5070835;28;20200;-82
2022/12/03 11:48:14;;;;;;;4.20;1.13;;;21.50;99.90;;;;;;5070607;28;20211;-83
2022/12/03 11:50:51;;;;;;;2.42;0.93;;;21.50;99.90;;;;;;5070629;28;20213;-83
2022/12/03 11:53:24;;;;;;;3.40;0.85;;;21.50;99.90;;;;;;5069308;28;20200;-83
2022/12/03 11:56:07;;;;;;;3.15;0.90;;;21.60;99.90;;;;;;5072447;28;20227;-83
2022/12/03 11:58:39;;;;;;;3.70;0.82;;;21.50;99.90;;;;;;5073736;28;20222;-83
2022/12/03 12:01:11;;;;;;;6.78;1.17;;;21.50;99.90;;;;;;5070716;28;20196;-83
2022/12/03 12:03:47;;;;;;;3.95;0.90;;;21.50;99.90;;;;;;5074861;28;20726;-84
2022/12/03 12:06:19;;;;;;;2.92;0.98;;;21.50;99.90;;;;;;5085749;28;20191;-84
2022/12/03 12:08:59;;;;;;;3.13;1.13;;;21.40;99.90;;;;;;5059774;28;20196;-84
2022/12/03 12:11:31;;;;;;;3.42;1.00;;;21.40;99.90;;;;;;5057036;28;20287;-83
2022/12/03 12:14:03;;;;;;;2.88;0.90;;;21.50;99.90;;;;;;5055141;28;20275;-83
2022/12/03 12:17:01;;;;;;;2.58;0.80;;;21.40;99.90;;;;;;5065833;28;20243;-83
2022/12/03 12:19:34;;;;;;;4.35;1.00;;;21.40;99.90;;;;;;5068033;28;20226;-85
2022/12/03 12:22:30;;;;;;;3.55;0.93;;;21.40;99.90;;;;;;5075332;28;20573;-84
2022/12/03 12:25:02;;;;;;;4.60;1.10;;;21.40;99.90;;;;;;5065810;28;20680;-83
2022/12/03 12:27:39;;;;;;;5.32;0.90;;;21.40;99.90;;;;;;5073804;28;20200;-83
2022/12/03 12:30:15;;;;;;;4.60;0.95;;;21.30;99.90;;;;;;5074122;28;20282;-83
2022/12/03 12:32:51;;;;;;;5.47;0.90;;;21.30;99.90;;;;;;5075366;28;20203;-84
2022/12/03 12:35:23;;;;;;;3.78;0.90;;;21.40;99.90;;;;;;5075616;28;20238;-85
2022/12/03 12:37:55;;;;;;;3.13;0.95;;;21.30;99.90;;;;;;5066333;28;20655;-85
2022/12/03 12:40:29;;;;;;;2.75;1.00;;;21.30;99.90;;;;;;5061910;28;20192;-84
2022/12/03 12:43:01;;;;;;;4.57;0.80;;;21.30;99.90;;;;;;5058012;28;20262;-84
2022/12/03 12:45:35;;;;;;;4.88;1.00;;;21.30;99.90;;;;;;5067776;28;20211;-84
2022/12/03 12:48:18;;;;;;;4.43;0.98;;;21.30;99.90;;;;;;5074474;28;20196;-85
2022/12/03 12:50:50;;;;;;;5.72;0.95;;;21.30;99.90;;;;;;5073906;28;20309;-83
2022/12/03 12:53:24;;;;;;;5.40;1.13;;;21.30;99.90;;;;;;5073757;28;20203;-84
2022/12/03 12:56:00;;;;;;;5.20;1.10;;;21.30;99.90;;;;;;5076270;28;20224;-84
2022/12/03 12:58:33;;;;;;;3.75;0.93;;;21.20;99.90;;;;;;5072947;28;20267;-84
2022/12/03 13:01:09;;;;;;;6.00;1.13;;;21.20;99.90;;;;;;5054211;28;20200;-84
2022/12/03 13:03:42;;;;;;;3.38;0.90;;;21.20;99.90;;;;;;5073526;28;20191;-85
2022/12/03 13:06:17;;;;;;;4.93;0.80;;;21.20;99.90;;;;;;5073471;28;20763;-84
2022/12/03 13:08:50;;;;;;;5.95;1.15;;;21.20;99.90;;;;;;5068355;28;20183;-84
2022/12/03 13:11:35;;;;;;;4.22;1.00;;;21.20;99.90;;;;;;5073079;28;20566;-84
2022/12/03 13:14:14;;;;;;;3.10;1.00;;;21.20;99.90;;;;;;5070261;28;20195;-85
2022/12/03 13:16:45;;;;;;;3.97;0.85;;;21.20;99.90;;;;;;5061776;28;20255;-86
2022/12/03 13:19:24;;;;;;;3.60;1.20;;;21.20;99.90;;;;;;5076415;28;20677;-84
2022/12/03 13:21:56;;;;;;;4.88;1.10;;;21.20;99.90;;;;;;5058938;28;20291;-84
2022/12/03 13:24:34;;;;;;;3.20;1.10;;;21.10;99.90;;;;;;5054115;28;20197;-85
2022/12/03 13:27:22;;;;;;;4.18;0.98;;;21.10;99.90;;;;;;5053381;28;20232;-85
2022/12/03 13:29:56;;;;;;;4.95;1.15;;;21.10;99.90;;;;;;5060024;28;20204;-84
2022/12/03 13:32:30;;;;;;;2.72;1.10;;;21.10;99.90;;;;;;5070817;28;20592;-85
2022/12/03 13:35:15;;;;;;;3.30;1.02;;;21.10;99.90;;;;;;5072285;28;20203;-85
2022/12/03 13:37:46;;;;;;;3.50;1.13;;;21.10;99.90;;;;;;5055466;28;20236;-83
2022/12/03 13:40:25;;;;;;;6.65;1.30;;;21.20;99.90;;;;;;5052377;28;20246;-85
2022/12/03 13:42:56;;;;;;;4.75;1.10;;;21.20;99.90;;;;;;5052526;28;20789;-84
2022/12/03 13:45:40;;;;;;;3.17;0.90;;;21.20;99.90;;;;;;5068122;28;20196;-85
2022/12/03 13:48:23;;;;;;;3.42;1.23;;;21.10;99.90;;;;;;5072493;28;20206;-84